sensor_id;sensor_type;location;lat;lon;timestamp;P1;durP1;ratioP1;P2;durP2;ratioP2
3085;SDS011;52812;48.960;9.108;2024-02-21T00:00:54;14.47;;;9.00;;
3085;SDS011;52812;48.960;9.108;2024-02-21T00:03:19;17.27;;;8.60;;
3085;SDS011;52812;48.960;9.108;2024-02-21T00:05:45;15.47;;;8.53;;
3085;SDS011;52812;48.960;9.108;2024-02-21T00:08:10;12.63;;;6.80;;
3085;SDS011;52812;48.960;9.108;2024-02-21T00:10:36;10.10;;;6.77;;
3085;SDS011;52812;48.960;9.108;2024-02-21T00:13:02;14.40;;;8.13;;
3085;SDS011;52812;48.960;9.108;2024-02-21T00:15:28;13.07;;;7.20;;
3085;SDS011;52812;48.960;9.108;2024-02-21T00:17:53;13.57;;;7.20;;
3085;SDS011;52812;48.960;9.108;2024-02-21T00:20:19;11.90;;;6.17;;
3085;SDS011;52812;48.960;9.108;2024-02-21T00:22:45;12.30;;;6.80;;
3085;SDS011;52812;48.960;9.108;2024-02-21T00:25:10;11.40;;;6.30;;
3085;SDS011;52812;48.960;9.108;2024-02-21T00:27:36;11.90;;;6.83;;
3085;SDS011;52812;48.960;9.108;2024-02-21T00:30:02;14.20;;;6.07;;
3085;SDS011;52812;48.960;9.108;2024-02-21T00:32:28;14.87;;;6.23;;
3085;SDS011;52812;48.960;9.108;2024-02-21T00:34:54;9.60;;;6.27;;
3085;SDS011;52812;48.960;9.108;2024-02-21T00:37:20;16.30;;;6.10;;
3085;SDS011;52812;48.960;9.108;2024-02-21T00:39:45;10.93;;;6.70;;
3085;SDS011;52812;48.960;9.108;2024-02-21T00:42:11;10.13;;;5.57;;
3085;SDS011;52812;48.960;9.108;2024-02-21T00:44:37;12.17;;;6.50;;
3085;SDS011;52812;48.960;9.108;2024-02-21T00:47:02;9.57;;;5.47;;
3085;SDS011;52812;48.960;9.108;2024-02-21T00:49:28;12.97;;;5.77;;
3085;SDS011;52812;48.960;9.108;2024-02-21T00:51:53;10.07;;;6.30;;
3085;SDS011;52812;48.960;9.108;2024-02-21T00:54:19;12.30;;;6.17;;
3085;SDS011;52812;48.960;9.108;2024-02-21T00:56:44;11.67;;;6.87;;
3085;SDS011;52812;48.960;9.108;2024-02-21T00:59:10;11.63;;;6.77;;
3085;SDS011;52812;48.960;9.108;2024-02-21T01:01:35;13.80;;;7.33;;
3085;SDS011;52812;48.960;9.108;2024-02-21T01:04:01;14.80;;;6.80;;
3085;SDS011;52812;48.960;9.108;2024-02-21T01:06:26;13.67;;;6.33;;
3085;SDS011;52812;48.960;9.108;2024-02-21T01:08:52;14.07;;;6.87;;
3085;SDS011;52812;48.960;9.108;2024-02-21T01:11:18;9.90;;;6.70;;
3085;SDS011;52812;48.960;9.108;2024-02-21T01:13:43;19.90;;;7.63;;
3085;SDS011;52812;48.960;9.108;2024-02-21T01:16:09;11.90;;;6.53;;
3085;SDS011;52812;48.960;9.108;2024-02-21T01:18:37;15.53;;;6.73;;
3085;SDS011;52812;48.960;9.108;2024-02-21T01:21:03;12.13;;;7.20;;
3085;SDS011;52812;48.960;9.108;2024-02-21T01:23:32;15.80;;;6.50;;
3085;SDS011;52812;48.960;9.108;2024-02-21T01:25:58;13.30;;;7.20;;
3085;SDS011;52812;48.960;9.108;2024-02-21T01:28:23;11.67;;;6.70;;
3085;SDS011;52812;48.960;9.108;2024-02-21T01:30:49;11.27;;;6.43;;
3085;SDS011;52812;48.960;9.108;2024-02-21T01:33:14;10.80;;;6.00;;
3085;SDS011;52812;48.960;9.108;2024-02-21T01:35:40;11.33;;;6.10;;
3085;SDS011;52812;48.960;9.108;2024-02-21T01:38:05;11.43;;;5.97;;
3085;SDS011;52812;48.960;9.108;2024-02-21T01:40:31;13.13;;;5.97;;
3085;SDS011;52812;48.960;9.108;2024-02-21T01:42:56;11.97;;;6.10;;
3085;SDS011;52812;48.960;9.108;2024-02-21T01:45:22;13.20;;;7.90;;
3085;SDS011;52812;48.960;9.108;2024-02-21T01:47:48;10.43;;;5.50;;
3085;SDS011;52812;48.960;9.108;2024-02-21T01:50:15;9.60;;;4.70;;
3085;SDS011;52812;48.960;9.108;2024-02-21T01:52:41;11.70;;;4.20;;
3085;SDS011;52812;48.960;9.108;2024-02-21T01:55:09;9.33;;;4.37;;
3085;SDS011;52812;48.960;9.108;2024-02-21T01:57:36;8.40;;;4.23;;
3085;SDS011;52812;48.960;9.108;2024-02-21T02:00:01;7.57;;;4.00;;
3085;SDS011;52812;48.960;9.108;2024-02-21T02:02:28;8.77;;;4.80;;
3085;SDS011;52812;48.960;9.108;2024-02-21T02:04:54;8.13;;;4.20;;
3085;SDS011;52812;48.960;9.108;2024-02-21T02:07:21;7.10;;;4.20;;
3085;SDS011;52812;48.960;9.108;2024-02-21T02:09:46;7.07;;;4.80;;
3085;SDS011;52812;48.960;9.108;2024-02-21T02:12:12;11.07;;;4.47;;
3085;SDS011;52812;48.960;9.108;2024-02-21T02:14:38;10.57;;;5.17;;
3085;SDS011;52812;48.960;9.108;2024-02-21T02:17:04;9.30;;;4.20;;
3085;SDS011;52812;48.960;9.108;2024-02-21T02:19:30;8.67;;;4.77;;
3085;SDS011;52812;48.960;9.108;2024-02-21T02:21:56;10.43;;;4.70;;
3085;SDS011;52812;48.960;9.108;2024-02-21T02:24:29;9.60;;;4.70;;
3085;SDS011;52812;48.960;9.108;2024-02-21T02:26:55;11.53;;;4.60;;
3085;SDS011;52812;48.960;9.108;2024-02-21T02:29:21;8.50;;;5.20;;
3085;SDS011;52812;48.960;9.108;2024-02-21T02:31:47;9.90;;;4.60;;
3085;SDS011;52812;48.960;9.108;2024-02-21T02:34:13;11.10;;;4.90;;
3085;SDS011;52812;48.960;9.108;2024-02-21T02:36:39;9.37;;;5.63;;
3085;SDS011;52812;48.960;9.108;2024-02-21T02:39:04;10.07;;;4.57;;
3085;SDS011;52812;48.960;9.108;2024-02-21T02:41:30;8.27;;;4.70;;
3085;SDS011;52812;48.960;9.108;2024-02-21T02:43:55;12.10;;;5.53;;
3085;SDS011;52812;48.960;9.108;2024-02-21T02:46:21;11.07;;;4.70;;
3085;SDS011;52812;48.960;9.108;2024-02-21T02:48:47;9.60;;;4.30;;
3085;SDS011;52812;48.960;9.108;2024-02-21T02:51:12;10.23;;;4.43;;
3085;SDS011;52812;48.960;9.108;2024-02-21T02:53:38;9.43;;;4.87;;
3085;SDS011;52812;48.960;9.108;2024-02-21T02:56:03;8.40;;;4.77;;
3085;SDS011;52812;48.960;9.108;2024-02-21T02:58:29;13.90;;;4.40;;
3085;SDS011;52812;48.960;9.108;2024-02-21T03:00:54;10.77;;;4.70;;
3085;SDS011;52812;48.960;9.108;2024-02-21T03:03:20;6.10;;;4.20;;
3085;SDS011;52812;48.960;9.108;2024-02-21T03:05:45;8.70;;;4.60;;
3085;SDS011;52812;48.960;9.108;2024-02-21T03:08:11;7.07;;;4.30;;
3085;SDS011;52812;48.960;9.108;2024-02-21T03:10:36;8.67;;;4.30;;
3085;SDS011;52812;48.960;9.108;2024-02-21T03:13:02;9.17;;;4.63;;
3085;SDS011;52812;48.960;9.108;2024-02-21T03:15:28;5.80;;;4.47;;
3085;SDS011;52812;48.960;9.108;2024-02-21T03:17:54;7.90;;;4.10;;
3085;SDS011;52812;48.960;9.108;2024-02-21T03:20:19;8.20;;;4.40;;
3085;SDS011;52812;48.960;9.108;2024-02-21T03:22:45;8.90;;;4.33;;
3085;SDS011;52812;48.960;9.108;2024-02-21T03:25:10;11.20;;;4.90;;
3085;SDS011;52812;48.960;9.108;2024-02-21T03:27:37;10.80;;;4.50;;
3085;SDS011;52812;48.960;9.108;2024-02-21T03:30:03;8.53;;;4.50;;
3085;SDS011;52812;48.960;9.108;2024-02-21T03:32:29;6.87;;;4.40;;
3085;SDS011;52812;48.960;9.108;2024-02-21T03:34:55;9.50;;;4.67;;
3085;SDS011;52812;48.960;9.108;2024-02-21T03:37:20;10.70;;;4.70;;
3085;SDS011;52812;48.960;9.108;2024-02-21T03:39:46;11.67;;;4.57;;
3085;SDS011;52812;48.960;9.108;2024-02-21T03:42:12;8.30;;;4.90;;
3085;SDS011;52812;48.960;9.108;2024-02-21T03:44:37;9.97;;;4.30;;
3085;SDS011;52812;48.960;9.108;2024-02-21T03:47:03;7.30;;;4.27;;
3085;SDS011;52812;48.960;9.108;2024-02-21T03:49:29;7.57;;;4.40;;
3085;SDS011;52812;48.960;9.108;2024-02-21T03:51:54;9.47;;;4.80;;
3085;SDS011;52812;48.960;9.108;2024-02-21T03:54:21;8.30;;;4.43;;
3085;SDS011;52812;48.960;9.108;2024-02-21T03:56:46;9.47;;;4.90;;
3085;SDS011;52812;48.960;9.108;2024-02-21T03:59:15;6.30;;;3.83;;
3085;SDS011;52812;48.960;9.108;2024-02-21T04:01:40;6.53;;;4.50;;
3085;SDS011;52812;48.960;9.108;2024-02-21T04:04:06;8.97;;;4.47;;
3085;SDS011;52812;48.960;9.108;2024-02-21T04:06:32;7.57;;;4.40;;
3085;SDS011;52812;48.960;9.108;2024-02-21T04:08:58;6.67;;;4.40;;
3085;SDS011;52812;48.960;9.108;2024-02-21T04:11:23;8.13;;;4.20;;
3085;SDS011;52812;48.960;9.108;2024-02-21T04:13:49;10.70;;;4.77;;
3085;SDS011;52812;48.960;9.108;2024-02-21T04:16:16;8.67;;;4.40;;
3085;SDS011;52812;48.960;9.108;2024-02-21T04:18:42;8.50;;;4.20;;
3085;SDS011;52812;48.960;9.108;2024-02-21T04:21:13;8.20;;;5.10;;
3085;SDS011;52812;48.960;9.108;2024-02-21T04:23:40;10.73;;;4.00;;
3085;SDS011;52812;48.960;9.108;2024-02-21T04:26:06;7.77;;;4.20;;
3085;SDS011;52812;48.960;9.108;2024-02-21T04:28:31;6.27;;;3.60;;
3085;SDS011;52812;48.960;9.108;2024-02-21T04:30:57;9.03;;;4.40;;
3085;SDS011;52812;48.960;9.108;2024-02-21T04:33:22;8.73;;;4.77;;
3085;SDS011;52812;48.960;9.108;2024-02-21T04:35:48;9.13;;;4.40;;
3085;SDS011;52812;48.960;9.108;2024-02-21T04:38:13;5.80;;;4.00;;
3085;SDS011;52812;48.960;9.108;2024-02-21T04:40:39;9.50;;;4.60;;
3085;SDS011;52812;48.960;9.108;2024-02-21T04:43:05;9.80;;;4.50;;
3085;SDS011;52812;48.960;9.108;2024-02-21T04:45:30;7.37;;;3.93;;
3085;SDS011;52812;48.960;9.108;2024-02-21T04:47:56;7.63;;;4.80;;
3085;SDS011;52812;48.960;9.108;2024-02-21T04:50:22;6.87;;;4.27;;
3085;SDS011;52812;48.960;9.108;2024-02-21T04:52:47;8.00;;;4.37;;
3085;SDS011;52812;48.960;9.108;2024-02-21T04:55:13;10.73;;;4.47;;
3085;SDS011;52812;48.960;9.108;2024-02-21T04:57:39;10.50;;;4.57;;
3085;SDS011;52812;48.960;9.108;2024-02-21T05:00:05;9.20;;;4.30;;
3085;SDS011;52812;48.960;9.108;2024-02-21T05:02:32;8.77;;;4.60;;
3085;SDS011;52812;48.960;9.108;2024-02-21T05:04:57;6.30;;;4.00;;
3085;SDS011;52812;48.960;9.108;2024-02-21T05:07:23;5.17;;;3.90;;
3085;SDS011;52812;48.960;9.108;2024-02-21T05:09:48;9.30;;;4.90;;
3085;SDS011;52812;48.960;9.108;2024-02-21T05:12:14;7.63;;;4.37;;
3085;SDS011;52812;48.960;9.108;2024-02-21T05:14:39;7.63;;;4.90;;
3085;SDS011;52812;48.960;9.108;2024-02-21T05:17:05;9.27;;;4.60;;
3085;SDS011;52812;48.960;9.108;2024-02-21T05:19:30;10.63;;;4.70;;
3085;SDS011;52812;48.960;9.108;2024-02-21T05:21:56;12.67;;;4.73;;
3085;SDS011;52812;48.960;9.108;2024-02-21T05:24:22;7.93;;;4.50;;
3085;SDS011;52812;48.960;9.108;2024-02-21T05:26:47;12.13;;;5.23;;
3085;SDS011;52812;48.960;9.108;2024-02-21T05:29:13;7.83;;;4.80;;
3085;SDS011;52812;48.960;9.108;2024-02-21T05:34:16;10.03;;;5.40;;
3085;SDS011;52812;48.960;9.108;2024-02-21T05:36:45;12.90;;;6.00;;
3085;SDS011;52812;48.960;9.108;2024-02-21T05:39:12;8.83;;;5.57;;
3085;SDS011;52812;48.960;9.108;2024-02-21T05:41:38;11.33;;;5.27;;
3085;SDS011;52812;48.960;9.108;2024-02-21T05:44:03;14.43;;;6.77;;
3085;SDS011;52812;48.960;9.108;2024-02-21T05:46:29;12.73;;;6.37;;
3085;SDS011;52812;48.960;9.108;2024-02-21T05:48:54;7.97;;;5.10;;
3085;SDS011;52812;48.960;9.108;2024-02-21T05:51:20;10.30;;;5.80;;
3085;SDS011;52812;48.960;9.108;2024-02-21T05:53:46;10.30;;;5.73;;
3085;SDS011;52812;48.960;9.108;2024-02-21T05:56:11;9.57;;;5.13;;
3085;SDS011;52812;48.960;9.108;2024-02-21T05:58:38;10.97;;;4.93;;
3085;SDS011;52812;48.960;9.108;2024-02-21T06:01:03;15.10;;;5.87;;
3085;SDS011;52812;48.960;9.108;2024-02-21T06:03:31;10.00;;;6.07;;
3085;SDS011;52812;48.960;9.108;2024-02-21T06:05:57;12.63;;;5.80;;
3085;SDS011;52812;48.960;9.108;2024-02-21T06:08:23;13.47;;;5.60;;
3085;SDS011;52812;48.960;9.108;2024-02-21T06:10:48;15.97;;;12.63;;
3085;SDS011;52812;48.960;9.108;2024-02-21T06:13:17;16.10;;;10.53;;
3085;SDS011;52812;48.960;9.108;2024-02-21T06:15:45;9.47;;;5.90;;
3085;SDS011;52812;48.960;9.108;2024-02-21T06:18:10;10.83;;;5.93;;
3085;SDS011;52812;48.960;9.108;2024-02-21T06:20:36;11.77;;;6.20;;
3085;SDS011;52812;48.960;9.108;2024-02-21T06:23:04;10.10;;;5.63;;
3085;SDS011;52812;48.960;9.108;2024-02-21T06:25:29;11.07;;;5.80;;
3085;SDS011;52812;48.960;9.108;2024-02-21T06:27:55;14.70;;;6.70;;
3085;SDS011;52812;48.960;9.108;2024-02-21T06:30:20;11.93;;;6.43;;
3085;SDS011;52812;48.960;9.108;2024-02-21T06:32:46;10.93;;;5.47;;
3085;SDS011;52812;48.960;9.108;2024-02-21T06:35:11;9.03;;;5.33;;
3085;SDS011;52812;48.960;9.108;2024-02-21T06:37:37;10.43;;;5.70;;
3085;SDS011;52812;48.960;9.108;2024-02-21T06:40:03;9.20;;;5.90;;
3085;SDS011;52812;48.960;9.108;2024-02-21T06:42:29;7.23;;;5.40;;
3085;SDS011;52812;48.960;9.108;2024-02-21T06:44:55;7.57;;;5.33;;
3085;SDS011;52812;48.960;9.108;2024-02-21T06:47:21;9.13;;;5.00;;
3085;SDS011;52812;48.960;9.108;2024-02-21T06:49:50;7.87;;;5.00;;
3085;SDS011;52812;48.960;9.108;2024-02-21T06:52:19;10.43;;;5.23;;
3085;SDS011;52812;48.960;9.108;2024-02-21T06:54:46;7.10;;;5.30;;
3085;SDS011;52812;48.960;9.108;2024-02-21T06:57:12;8.00;;;5.03;;
3085;SDS011;52812;48.960;9.108;2024-02-21T06:59:38;12.03;;;5.47;;
3085;SDS011;52812;48.960;9.108;2024-02-21T07:02:05;10.30;;;6.23;;
3085;SDS011;52812;48.960;9.108;2024-02-21T07:04:30;5.90;;;4.60;;
3085;SDS011;52812;48.960;9.108;2024-02-21T07:06:56;7.90;;;5.70;;
3085;SDS011;52812;48.960;9.108;2024-02-21T07:09:25;5.80;;;4.13;;
3085;SDS011;52812;48.960;9.108;2024-02-21T07:11:50;5.83;;;4.40;;
3085;SDS011;52812;48.960;9.108;2024-02-21T07:14:16;8.90;;;4.57;;
3085;SDS011;52812;48.960;9.108;2024-02-21T07:16:43;7.20;;;5.23;;
3085;SDS011;52812;48.960;9.108;2024-02-21T07:19:08;7.50;;;4.40;;
3085;SDS011;52812;48.960;9.108;2024-02-21T07:21:34;9.53;;;4.83;;
3085;SDS011;52812;48.960;9.108;2024-02-21T07:24:02;8.23;;;4.40;;
3085;SDS011;52812;48.960;9.108;2024-02-21T07:26:29;8.70;;;4.97;;
3085;SDS011;52812;48.960;9.108;2024-02-21T07:28:54;6.87;;;4.67;;
3085;SDS011;52812;48.960;9.108;2024-02-21T07:31:20;5.83;;;4.57;;
3085;SDS011;52812;48.960;9.108;2024-02-21T07:33:45;11.00;;;6.00;;
3085;SDS011;52812;48.960;9.108;2024-02-21T07:36:11;10.30;;;5.30;;
3085;SDS011;52812;48.960;9.108;2024-02-21T07:38:36;8.27;;;5.47;;
3085;SDS011;52812;48.960;9.108;2024-02-21T07:41:02;11.83;;;6.00;;
3085;SDS011;52812;48.960;9.108;2024-02-21T07:43:29;9.17;;;5.43;;
3085;SDS011;52812;48.960;9.108;2024-02-21T07:45:54;11.50;;;5.77;;
3085;SDS011;52812;48.960;9.108;2024-02-21T07:48:21;9.93;;;5.50;;
3085;SDS011;52812;48.960;9.108;2024-02-21T07:50:49;9.57;;;6.27;;
3085;SDS011;52812;48.960;9.108;2024-02-21T07:53:15;7.90;;;4.63;;
3085;SDS011;52812;48.960;9.108;2024-02-21T07:55:41;11.00;;;5.73;;
3085;SDS011;52812;48.960;9.108;2024-02-21T07:58:07;13.73;;;6.57;;
3085;SDS011;52812;48.960;9.108;2024-02-21T08:00:32;7.10;;;4.53;;
3085;SDS011;52812;48.960;9.108;2024-02-21T08:02:58;9.17;;;4.80;;
3085;SDS011;52812;48.960;9.108;2024-02-21T08:05:23;8.87;;;4.70;;
3085;SDS011;52812;48.960;9.108;2024-02-21T08:07:49;8.10;;;3.90;;
3085;SDS011;52812;48.960;9.108;2024-02-21T08:10:15;7.33;;;4.40;;
3085;SDS011;52812;48.960;9.108;2024-02-21T08:12:40;7.67;;;4.33;;
3085;SDS011;52812;48.960;9.108;2024-02-21T08:15:06;8.67;;;4.77;;
3085;SDS011;52812;48.960;9.108;2024-02-21T08:17:36;7.30;;;4.30;;
3085;SDS011;52812;48.960;9.108;2024-02-21T08:20:03;7.17;;;3.90;;
3085;SDS011;52812;48.960;9.108;2024-02-21T08:22:29;7.03;;;4.20;;
3085;SDS011;52812;48.960;9.108;2024-02-21T08:24:55;8.37;;;4.07;;
3085;SDS011;52812;48.960;9.108;2024-02-21T08:27:21;8.73;;;4.37;;
3085;SDS011;52812;48.960;9.108;2024-02-21T08:29:47;7.93;;;4.70;;
3085;SDS011;52812;48.960;9.108;2024-02-21T08:32:12;7.43;;;4.07;;
3085;SDS011;52812;48.960;9.108;2024-02-21T08:34:38;8.70;;;4.03;;
3085;SDS011;52812;48.960;9.108;2024-02-21T08:37:03;8.37;;;4.23;;
3085;SDS011;52812;48.960;9.108;2024-02-21T08:39:29;17.30;;;8.93;;
3085;SDS011;52812;48.960;9.108;2024-02-21T08:41:55;10.10;;;6.43;;
3085;SDS011;52812;48.960;9.108;2024-02-21T08:44:24;14.00;;;9.03;;
3085;SDS011;52812;48.960;9.108;2024-02-21T08:46:51;10.60;;;6.10;;
3085;SDS011;52812;48.960;9.108;2024-02-21T08:49:16;7.17;;;4.47;;
3085;SDS011;52812;48.960;9.108;2024-02-21T08:51:42;7.27;;;3.97;;
3085;SDS011;52812;48.960;9.108;2024-02-21T08:54:08;5.77;;;3.47;;
3085;SDS011;52812;48.960;9.108;2024-02-21T08:56:33;7.80;;;4.03;;
3085;SDS011;52812;48.960;9.108;2024-02-21T08:59:00;13.93;;;5.10;;
3085;SDS011;52812;48.960;9.108;2024-02-21T09:01:26;6.53;;;4.37;;
3085;SDS011;52812;48.960;9.108;2024-02-21T09:03:52;9.87;;;4.50;;
3085;SDS011;52812;48.960;9.108;2024-02-21T09:06:18;9.00;;;4.67;;
3085;SDS011;52812;48.960;9.108;2024-02-21T09:08:45;9.23;;;5.20;;
3085;SDS011;52812;48.960;9.108;2024-02-21T09:11:10;9.00;;;5.50;;
3085;SDS011;52812;48.960;9.108;2024-02-21T09:13:36;7.70;;;4.70;;
3085;SDS011;52812;48.960;9.108;2024-02-21T09:16:02;9.17;;;3.90;;
3085;SDS011;52812;48.960;9.108;2024-02-21T09:18:28;5.97;;;3.90;;
3085;SDS011;52812;48.960;9.108;2024-02-21T09:20:54;5.70;;;3.60;;
3085;SDS011;52812;48.960;9.108;2024-02-21T09:23:20;9.43;;;5.07;;
3085;SDS011;52812;48.960;9.108;2024-02-21T09:25:48;5.80;;;4.47;;
3085;SDS011;52812;48.960;9.108;2024-02-21T09:28:14;13.90;;;8.77;;
3085;SDS011;52812;48.960;9.108;2024-02-21T09:30:39;10.03;;;7.40;;
3085;SDS011;52812;48.960;9.108;2024-02-21T09:33:05;10.77;;;6.27;;
3085;SDS011;52812;48.960;9.108;2024-02-21T09:35:30;12.27;;;5.73;;
3085;SDS011;52812;48.960;9.108;2024-02-21T09:37:58;8.23;;;5.10;;
3085;SDS011;52812;48.960;9.108;2024-02-21T09:40:24;11.23;;;5.13;;
3085;SDS011;52812;48.960;9.108;2024-02-21T09:42:50;9.50;;;4.70;;
3085;SDS011;52812;48.960;9.108;2024-02-21T09:45:29;6.13;;;3.90;;
3085;SDS011;52812;48.960;9.108;2024-02-21T09:48:08;8.47;;;4.13;;
3085;SDS011;52812;48.960;9.108;2024-02-21T09:50:50;8.87;;;3.10;;
3085;SDS011;52812;48.960;9.108;2024-02-21T09:53:18;6.70;;;3.10;;
3085;SDS011;52812;48.960;9.108;2024-02-21T09:55:44;4.57;;;3.00;;
3085;SDS011;52812;48.960;9.108;2024-02-21T09:58:11;8.73;;;4.20;;
3085;SDS011;52812;48.960;9.108;2024-02-21T10:00:38;6.20;;;3.10;;
3085;SDS011;52812;48.960;9.108;2024-02-21T10:03:03;7.60;;;3.37;;
3085;SDS011;52812;48.960;9.108;2024-02-21T10:05:34;7.43;;;3.67;;
3085;SDS011;52812;48.960;9.108;2024-02-21T10:08:00;8.03;;;3.10;;
3085;SDS011;52812;48.960;9.108;2024-02-21T10:10:26;7.33;;;3.20;;
3085;SDS011;52812;48.960;9.108;2024-02-21T10:12:52;6.20;;;3.33;;
3085;SDS011;52812;48.960;9.108;2024-02-21T10:15:22;6.23;;;3.40;;
3085;SDS011;52812;48.960;9.108;2024-02-21T10:17:49;8.87;;;4.23;;
3085;SDS011;52812;48.960;9.108;2024-02-21T10:20:22;7.73;;;3.30;;
3085;SDS011;52812;48.960;9.108;2024-02-21T10:22:48;10.00;;;3.23;;
3085;SDS011;52812;48.960;9.108;2024-02-21T10:25:14;5.90;;;3.57;;
3085;SDS011;52812;48.960;9.108;2024-02-21T10:27:39;5.70;;;3.37;;
3085;SDS011;52812;48.960;9.108;2024-02-21T10:30:06;7.50;;;3.83;;
3085;SDS011;52812;48.960;9.108;2024-02-21T10:32:33;7.03;;;3.77;;
3085;SDS011;52812;48.960;9.108;2024-02-21T10:35:02;6.27;;;3.50;;
3085;SDS011;52812;48.960;9.108;2024-02-21T10:37:31;7.77;;;3.13;;
3085;SDS011;52812;48.960;9.108;2024-02-21T10:39:57;4.33;;;2.80;;
3085;SDS011;52812;48.960;9.108;2024-02-21T10:42:23;7.13;;;3.07;;
3085;SDS011;52812;48.960;9.108;2024-02-21T10:44:53;5.57;;;3.30;;
3085;SDS011;52812;48.960;9.108;2024-02-21T10:47:24;4.83;;;3.50;;
3085;SDS011;52812;48.960;9.108;2024-02-21T10:49:57;7.47;;;3.50;;
3085;SDS011;52812;48.960;9.108;2024-02-21T10:52:50;8.33;;;3.53;;
3085;SDS011;52812;48.960;9.108;2024-02-21T10:55:41;5.43;;;3.03;;
3085;SDS011;52812;48.960;9.108;2024-02-21T10:58:23;6.70;;;2.90;;
3085;SDS011;52812;48.960;9.108;2024-02-21T11:00:50;6.63;;;2.70;;
3085;SDS011;52812;48.960;9.108;2024-02-21T11:03:17;5.27;;;2.87;;
3085;SDS011;52812;48.960;9.108;2024-02-21T11:05:43;4.90;;;2.80;;
3085;SDS011;52812;48.960;9.108;2024-02-21T11:08:10;4.87;;;3.60;;
3085;SDS011;52812;48.960;9.108;2024-02-21T11:10:37;5.07;;;2.97;;
3085;SDS011;52812;48.960;9.108;2024-02-21T11:13:07;6.83;;;3.13;;
3085;SDS011;52812;48.960;9.108;2024-02-21T11:15:33;4.20;;;2.97;;
3085;SDS011;52812;48.960;9.108;2024-02-21T11:17:59;6.43;;;3.10;;
3085;SDS011;52812;48.960;9.108;2024-02-21T11:20:32;5.90;;;3.07;;
3085;SDS011;52812;48.960;9.108;2024-02-21T11:22:59;4.73;;;2.43;;
3085;SDS011;52812;48.960;9.108;2024-02-21T11:25:26;6.17;;;2.90;;
3085;SDS011;52812;48.960;9.108;2024-02-21T11:27:58;5.13;;;2.83;;
3085;SDS011;52812;48.960;9.108;2024-02-21T11:30:31;9.90;;;3.47;;
3085;SDS011;52812;48.960;9.108;2024-02-21T11:33:07;5.63;;;3.23;;
3085;SDS011;52812;48.960;9.108;2024-02-21T11:35:33;5.73;;;2.63;;
3085;SDS011;52812;48.960;9.108;2024-02-21T11:38:10;6.57;;;3.13;;
3085;SDS011;52812;48.960;9.108;2024-02-21T11:40:45;3.90;;;2.50;;
3085;SDS011;52812;48.960;9.108;2024-02-21T11:43:11;4.60;;;2.53;;
3085;SDS011;52812;48.960;9.108;2024-02-21T11:45:37;6.03;;;2.60;;
3085;SDS011;52812;48.960;9.108;2024-02-21T11:48:05;6.00;;;3.10;;
3085;SDS011;52812;48.960;9.108;2024-02-21T11:50:34;7.90;;;2.60;;
3085;SDS011;52812;48.960;9.108;2024-02-21T11:53:04;5.03;;;2.67;;
3085;SDS011;52812;48.960;9.108;2024-02-21T11:55:30;7.40;;;2.77;;
3085;SDS011;52812;48.960;9.108;2024-02-21T11:57:56;5.40;;;2.77;;
3085;SDS011;52812;48.960;9.108;2024-02-21T12:00:21;4.70;;;2.60;;
3085;SDS011;52812;48.960;9.108;2024-02-21T12:02:49;4.40;;;2.87;;
3085;SDS011;52812;48.960;9.108;2024-02-21T12:05:15;6.87;;;2.87;;
3085;SDS011;52812;48.960;9.108;2024-02-21T12:07:41;8.37;;;2.93;;
3085;SDS011;52812;48.960;9.108;2024-02-21T12:10:08;6.17;;;2.87;;
3085;SDS011;52812;48.960;9.108;2024-02-21T12:12:37;4.07;;;2.30;;
3085;SDS011;52812;48.960;9.108;2024-02-21T12:15:04;5.87;;;2.50;;
3085;SDS011;52812;48.960;9.108;2024-02-21T12:17:32;9.43;;;2.37;;
3085;SDS011;52812;48.960;9.108;2024-02-21T12:19:59;5.80;;;2.60;;
3085;SDS011;52812;48.960;9.108;2024-02-21T12:22:25;4.90;;;2.43;;
3085;SDS011;52812;48.960;9.108;2024-02-21T12:24:52;3.50;;;2.20;;
3085;SDS011;52812;48.960;9.108;2024-02-21T12:27:17;5.00;;;2.60;;
3085;SDS011;52812;48.960;9.108;2024-02-21T12:29:43;7.27;;;2.67;;
3085;SDS011;52812;48.960;9.108;2024-02-21T12:32:08;5.13;;;2.93;;
3085;SDS011;52812;48.960;9.108;2024-02-21T12:34:34;5.07;;;2.77;;
3085;SDS011;52812;48.960;9.108;2024-02-21T12:37:01;4.60;;;2.23;;
3085;SDS011;52812;48.960;9.108;2024-02-21T12:39:28;4.87;;;2.37;;
3085;SDS011;52812;48.960;9.108;2024-02-21T12:41:53;4.20;;;2.50;;
3085;SDS011;52812;48.960;9.108;2024-02-21T12:44:21;6.00;;;2.53;;
3085;SDS011;52812;48.960;9.108;2024-02-21T12:46:46;5.37;;;2.53;;
3085;SDS011;52812;48.960;9.108;2024-02-21T12:49:16;3.60;;;2.20;;
3085;SDS011;52812;48.960;9.108;2024-02-21T12:51:42;5.73;;;2.57;;
3085;SDS011;52812;48.960;9.108;2024-02-21T12:54:08;5.57;;;2.50;;
3085;SDS011;52812;48.960;9.108;2024-02-21T12:56:36;6.70;;;2.50;;
3085;SDS011;52812;48.960;9.108;2024-02-21T12:59:01;5.20;;;2.70;;
3085;SDS011;52812;48.960;9.108;2024-02-21T13:01:27;6.40;;;2.80;;
3085;SDS011;52812;48.960;9.108;2024-02-21T13:03:53;7.77;;;2.93;;
3085;SDS011;52812;48.960;9.108;2024-02-21T13:06:22;6.83;;;2.47;;
3085;SDS011;52812;48.960;9.108;2024-02-21T13:08:48;3.73;;;2.53;;
3085;SDS011;52812;48.960;9.108;2024-02-21T13:11:15;7.20;;;2.83;;
3085;SDS011;52812;48.960;9.108;2024-02-21T13:13:41;6.07;;;2.33;;
3085;SDS011;52812;48.960;9.108;2024-02-21T13:16:07;6.13;;;2.50;;
3085;SDS011;52812;48.960;9.108;2024-02-21T13:18:32;4.60;;;2.60;;
3085;SDS011;52812;48.960;9.108;2024-02-21T13:21:00;5.73;;;2.50;;
3085;SDS011;52812;48.960;9.108;2024-02-21T13:23:26;5.50;;;2.67;;
3085;SDS011;52812;48.960;9.108;2024-02-21T13:25:51;6.70;;;2.97;;
3085;SDS011;52812;48.960;9.108;2024-02-21T13:28:17;4.53;;;2.47;;
3085;SDS011;52812;48.960;9.108;2024-02-21T13:30:43;6.80;;;2.93;;
3085;SDS011;52812;48.960;9.108;2024-02-21T13:33:08;3.47;;;2.57;;
3085;SDS011;52812;48.960;9.108;2024-02-21T13:35:35;4.10;;;2.40;;
3085;SDS011;52812;48.960;9.108;2024-02-21T13:38:01;4.10;;;2.57;;
3085;SDS011;52812;48.960;9.108;2024-02-21T13:40:27;4.87;;;2.63;;
3085;SDS011;52812;48.960;9.108;2024-02-21T13:42:53;8.63;;;2.80;;
3085;SDS011;52812;48.960;9.108;2024-02-21T13:45:19;7.20;;;2.80;;
3085;SDS011;52812;48.960;9.108;2024-02-21T13:47:44;4.73;;;2.57;;
3085;SDS011;52812;48.960;9.108;2024-02-21T13:50:10;5.87;;;2.53;;
3085;SDS011;52812;48.960;9.108;2024-02-21T13:52:37;7.23;;;2.53;;
3085;SDS011;52812;48.960;9.108;2024-02-21T13:55:03;6.33;;;2.50;;
3085;SDS011;52812;48.960;9.108;2024-02-21T13:57:28;7.53;;;2.50;;
3085;SDS011;52812;48.960;9.108;2024-02-21T13:59:54;7.13;;;2.53;;
3085;SDS011;52812;48.960;9.108;2024-02-21T14:02:20;10.27;;;3.37;;
3085;SDS011;52812;48.960;9.108;2024-02-21T14:04:46;3.90;;;2.40;;
3085;SDS011;52812;48.960;9.108;2024-02-21T14:07:12;6.17;;;3.10;;
3085;SDS011;52812;48.960;9.108;2024-02-21T14:09:37;3.63;;;2.80;;
3085;SDS011;52812;48.960;9.108;2024-02-21T14:12:03;4.53;;;2.40;;
3085;SDS011;52812;48.960;9.108;2024-02-21T14:14:33;6.07;;;2.67;;
3085;SDS011;52812;48.960;9.108;2024-02-21T14:17:00;2.90;;;2.30;;
3085;SDS011;52812;48.960;9.108;2024-02-21T14:19:25;4.47;;;2.53;;
3085;SDS011;52812;48.960;9.108;2024-02-21T14:21:51;6.30;;;2.90;;
3085;SDS011;52812;48.960;9.108;2024-02-21T14:24:16;4.47;;;2.30;;
3085;SDS011;52812;48.960;9.108;2024-02-21T14:26:42;6.37;;;2.90;;
3085;SDS011;52812;48.960;9.108;2024-02-21T14:29:07;4.77;;;2.60;;
3085;SDS011;52812;48.960;9.108;2024-02-21T14:31:33;5.20;;;2.20;;
3085;SDS011;52812;48.960;9.108;2024-02-21T14:33:59;5.43;;;2.60;;
3085;SDS011;52812;48.960;9.108;2024-02-21T14:36:25;5.00;;;2.40;;
3085;SDS011;52812;48.960;9.108;2024-02-21T14:38:51;8.37;;;2.63;;
3085;SDS011;52812;48.960;9.108;2024-02-21T14:41:17;4.87;;;3.20;;
3085;SDS011;52812;48.960;9.108;2024-02-21T14:43:43;5.73;;;2.33;;
3085;SDS011;52812;48.960;9.108;2024-02-21T14:46:09;5.00;;;2.80;;
3085;SDS011;52812;48.960;9.108;2024-02-21T14:48:37;9.93;;;2.60;;
3085;SDS011;52812;48.960;9.108;2024-02-21T14:51:03;4.30;;;2.50;;
3085;SDS011;52812;48.960;9.108;2024-02-21T14:53:33;4.43;;;2.43;;
3085;SDS011;52812;48.960;9.108;2024-02-21T14:56:01;4.37;;;2.27;;